Terminal Aerodrome Forecast
Issued by NWS Sioux Falls, SD

Home | Current Version | Previous Version | Text Only | Print | Product List | Glossary Off
Versions: 1 2 3 4 5 6 7 8 9 10 11 12 13

000
FTUS43 KFSD 241700
TAFHON
TAF
KHON 241720Z 2418/2518 27013G18KT P6SM FEW035 SCT150
     FM242200 27011KT P6SM SCT150
     FM250100 VRB04KT P6SM SKC
     FM251200 29007KT P6SM SCT100=

USA.gov is the U.S. government's official web portal to all federal, state and local government web resources and services.